createdAt,value
2022-08-12T00:03:57.567Z,16.45
2022-08-12T00:09:17.526Z,16.25
2022-08-12T00:14:37.499Z,16.20
2022-08-12T00:19:57.304Z,16.08
2022-08-12T00:25:20.956Z,16.01
2022-08-12T00:31:01.113Z,15.90
2022-08-12T00:36:34.888Z,15.88
2022-08-12T00:41:56.557Z,15.77
2022-08-12T00:46:59.734Z,15.74
2022-08-12T00:52:11.393Z,15.70
2022-08-12T00:57:12.758Z,15.62
2022-08-12T01:02:21.197Z,15.49
2022-08-12T01:07:43.120Z,15.37
2022-08-12T01:12:44.768Z,15.31
2022-08-12T01:17:46.302Z,15.28
2022-08-12T01:22:58.512Z,15.19
2022-08-12T01:28:01.870Z,15.11
2022-08-12T01:33:05.992Z,15.02
2022-08-12T01:38:11.110Z,14.94
2022-08-12T01:43:15.884Z,14.84
2022-08-12T01:48:23.159Z,14.79
2022-08-12T01:53:26.087Z,14.78
2022-08-12T01:58:55.302Z,14.69
2022-08-12T02:04:25.133Z,14.61
2022-08-12T02:09:51.996Z,14.47
2022-08-12T02:15:01.402Z,14.44
2022-08-12T02:20:12.892Z,14.38
2022-08-12T02:25:26.859Z,14.44
2022-08-12T02:30:33.240Z,14.30
2022-08-12T02:35:43.141Z,14.26
2022-08-12T02:40:48.820Z,14.09
2022-08-12T02:45:56.590Z,14.04
2022-08-12T02:51:04.322Z,13.84
2022-08-12T02:56:06.526Z,13.77
2022-08-12T03:01:10.251Z,13.70
2022-08-12T03:06:17.534Z,13.70
2022-08-12T03:11:23.498Z,13.68
2022-08-12T03:16:26.807Z,13.64
2022-08-12T03:21:54.660Z,13.59
2022-08-12T03:26:51.684Z,13.58
2022-08-12T03:31:55.879Z,13.43
2022-08-12T03:36:58.559Z,13.38
2022-08-12T03:42:04.252Z,13.40
2022-08-12T03:47:30.521Z,13.29
2022-08-12T03:52:50.564Z,13.28
2022-08-12T03:58:10.416Z,13.26
2022-08-12T04:03:30.949Z,13.14
2022-08-12T04:08:32.478Z,13.10
2022-08-12T04:13:34.081Z,13.06
2022-08-12T04:18:35.828Z,13.06
2022-08-12T04:23:47.646Z,13.05
2022-08-12T04:28:49.676Z,13.07
2022-08-12T04:33:51.349Z,13.10
2022-08-12T04:38:59.563Z,13.09
2022-08-12T04:44:02.571Z,13.13
2022-08-12T04:49:05.162Z,13.23
2022-08-12T04:54:06.549Z,13.26
2022-08-12T04:59:07.900Z,13.35
2022-08-12T05:04:09.403Z,13.51
2022-08-12T05:09:13.391Z,13.64
2022-08-12T05:14:15.146Z,13.70
2022-08-12T05:19:18.493Z,13.83
2022-08-12T05:24:23.704Z,14.02
2022-08-12T05:30:06.206Z,14.26
2022-08-12T05:34:47.741Z,14.55
2022-08-12T05:39:49.807Z,14.88
2022-08-12T05:44:51.175Z,15.29
2022-08-12T05:49:53.593Z,17.57
2022-08-12T05:54:57.866Z,20.60
2022-08-12T05:59:59.461Z,22.89
2022-08-12T06:05:00.879Z,24.07
2022-08-12T06:10:02.250Z,25.17
2022-08-12T06:15:04.345Z,25.05
2022-08-12T06:20:27.208Z,24.81
2022-08-12T06:25:29.163Z,25.12
2022-08-12T06:30:36.856Z,25.86
2022-08-12T06:35:48.620Z,25.02
2022-08-12T06:41:14.824Z,25.43
2022-08-12T06:46:16.182Z,27.98
2022-08-12T06:51:19.847Z,28.09
2022-08-12T06:56:27.345Z,28.12
2022-08-12T07:01:50.819Z,28.61
2022-08-12T07:06:55.728Z,30.08
2022-08-12T07:11:57.122Z,30.57
2022-08-12T07:17:02.327Z,30.89
2022-08-12T07:22:06.443Z,32.89
2022-08-12T07:27:07.839Z,30.78
2022-08-12T07:32:09.173Z,32.99
2022-08-12T07:37:10.755Z,31.31
2022-08-12T07:42:12.128Z,32.84
2022-08-12T07:47:13.476Z,33.26
2022-08-12T07:52:17.013Z,33.88
2022-08-12T07:57:18.593Z,34.05
2022-08-12T08:02:20.011Z,32.96
2022-08-12T08:07:30.693Z,35.25
2022-08-12T08:12:51.225Z,34.39
2022-08-12T08:17:57.845Z,32.97
2022-08-12T08:23:00.897Z,34.06
2022-08-12T08:28:03.563Z,34.40
2022-08-12T08:33:24.623Z,34.84
2022-08-12T08:38:33.059Z,34.60
2022-08-12T08:43:43.942Z,34.17
2022-08-12T08:48:46.116Z,35.72
2022-08-12T08:53:51.913Z,35.70
2022-08-12T08:58:54.552Z,35.81
2022-08-12T09:05:09.309Z,35.57
2022-08-12T09:09:17.706Z,36.30
2022-08-12T09:14:29.148Z,35.68
2022-08-12T09:19:30.935Z,35.61
2022-08-12T09:24:37.218Z,34.93
2022-08-12T09:30:08.937Z,36.23
2022-08-12T09:34:59.906Z,36.74
2022-08-12T09:42:07.369Z,35.25
2022-08-12T09:45:24.214Z,35.23
2022-08-12T09:50:50.677Z,35.23
2022-08-12T09:56:01.206Z,35.64
2022-08-12T10:01:22.854Z,35.68
2022-08-12T10:06:32.355Z,35.03
2022-08-12T10:12:10.858Z,35.99
2022-08-12T10:17:14.519Z,36.28
2022-08-12T10:22:16.946Z,37.27
2022-08-12T10:28:04.550Z,38.07
2022-08-12T10:33:18.005Z,35.87
2022-08-12T10:38:37.371Z,35.36
2022-08-12T10:43:55.343Z,34.86
2022-08-12T10:49:06.976Z,37.08
2022-08-12T10:54:19.691Z,35.34
2022-08-12T11:00:29.263Z,35.30
2022-08-12T11:04:59.464Z,35.87
2022-08-12T11:10:20.249Z,35.64
2022-08-12T11:16:02.424Z,35.50
2022-08-12T11:20:52.122Z,36.56
2022-08-12T11:25:58.162Z,37.14
2022-08-12T11:31:01.306Z,35.29
2022-08-12T11:36:14.782Z,35.67
2022-08-12T11:41:16.584Z,35.01
2022-08-12T11:46:29.638Z,35.35
2022-08-12T11:51:36.308Z,35.36
2022-08-12T11:56:42.866Z,35.98
2022-08-12T12:02:02.458Z,35.84
2022-08-12T12:07:11.374Z,35.08
2022-08-12T12:12:12.989Z,34.87
2022-08-12T12:17:14.338Z,34.87
2022-08-12T12:22:32.014Z,34.23
2022-08-12T12:28:04.717Z,33.96
2022-08-12T12:33:08.940Z,34.51
2022-08-12T12:38:12.086Z,33.77
2022-08-12T12:43:14.241Z,32.84
2022-08-12T12:48:20.139Z,33.14
2022-08-12T12:54:08.095Z,31.82
2022-08-12T12:58:46.953Z,31.83
2022-08-12T13:03:48.948Z,32.44
2022-08-12T13:08:50.868Z,32.32
2022-08-12T13:14:09.649Z,32.80
2022-08-12T13:19:15.183Z,32.67
2022-08-12T13:24:16.634Z,32.81
2022-08-12T13:29:20.473Z,32.34
2022-08-12T13:34:29.570Z,32.47
2022-08-12T13:39:36.453Z,32.94
2022-08-12T13:44:37.868Z,32.50
2022-08-12T13:49:53.641Z,32.88
2022-08-12T13:54:56.614Z,32.75
2022-08-12T14:00:00.759Z,33.03
2022-08-12T14:05:03.392Z,32.73
2022-08-12T14:10:39.220Z,32.68
2022-08-12T14:15:53.978Z,31.93
2022-08-12T14:21:01.781Z,31.66
2022-08-12T14:26:06.981Z,31.43
2022-08-12T14:31:18.256Z,31.35
2022-08-12T14:36:21.075Z,31.28
2022-08-12T14:41:36.557Z,31.38
2022-08-12T14:46:38.910Z,31.45
2022-08-12T14:53:13.534Z,31.13
2022-08-12T14:57:20.627Z,31.19
2022-08-12T15:02:26.494Z,30.93
2022-08-12T15:07:33.787Z,31.04
2022-08-12T15:12:50.979Z,30.87
2022-08-12T15:17:59.227Z,30.88
2022-08-12T15:23:01.211Z,30.44
2022-08-12T15:28:05.709Z,30.51
2022-08-12T15:33:14.999Z,30.70
2022-08-12T15:38:19.550Z,30.70
2022-08-12T15:43:51.807Z,30.61
2022-08-12T15:48:46.733Z,30.65
2022-08-12T15:54:34.160Z,30.41
2022-08-12T15:59:51.959Z,30.42
2022-08-12T16:04:51.450Z,30.19
2022-08-12T16:10:04.756Z,30.24
2022-08-12T16:15:13.252Z,30.13
2022-08-12T16:20:22.695Z,30.07
2022-08-12T16:26:02.751Z,29.89
2022-08-12T16:30:56.279Z,29.80
2022-08-12T16:35:57.623Z,29.65
2022-08-12T16:41:01.436Z,29.64
2022-08-12T16:46:07.735Z,29.57
2022-08-12T16:51:25.520Z,29.51
2022-08-12T16:56:28.889Z,29.42
2022-08-12T17:01:35.927Z,29.28
2022-08-12T17:06:43.301Z,29.23
2022-08-12T17:11:45.381Z,29.27
2022-08-12T17:16:52.228Z,29.06
2022-08-12T17:22:02.216Z,28.95
2022-08-12T17:27:12.826Z,28.89
2022-08-12T17:32:22.148Z,28.87
2022-08-12T17:37:29.516Z,28.79
2022-08-12T17:42:34.130Z,28.65
2022-08-12T17:47:36.926Z,28.49
2022-08-12T17:52:38.811Z,28.33
2022-08-12T17:57:42.534Z,28.32
2022-08-12T18:02:48.224Z,28.17
2022-08-12T18:07:55.021Z,27.94
2022-08-12T18:13:01.229Z,27.73
2022-08-12T18:18:03.761Z,27.65
2022-08-12T18:23:06.034Z,27.65
2022-08-12T18:28:16.437Z,27.54
2022-08-12T18:33:23.748Z,27.30
2022-08-12T18:38:26.947Z,26.82
2022-08-12T18:43:28.373Z,26.53
2022-08-12T18:48:32.081Z,26.17
2022-08-12T18:54:07.001Z,25.88
2022-08-12T18:58:59.829Z,25.49
2022-08-12T19:04:08.884Z,25.08
2022-08-12T19:09:14.570Z,24.71
2022-08-12T19:14:25.434Z,24.51
2022-08-12T19:19:42.020Z,24.38
2022-08-12T19:25:03.165Z,24.01
2022-08-12T19:30:09.229Z,23.66
2022-08-12T19:40:34.400Z,23.06
2022-08-12T19:45:43.472Z,22.78
2022-08-12T19:50:52.707Z,22.48
2022-08-12T19:55:55.498Z,22.19
2022-08-12T20:00:56.884Z,22.01
2022-08-12T20:06:05.389Z,21.76
2022-08-12T20:12:11.141Z,21.55
2022-08-12T20:16:52.427Z,21.30
2022-08-12T20:21:58.179Z,21.15
2022-08-12T20:27:00.228Z,20.99
2022-08-12T20:32:04.020Z,20.88
2022-08-12T20:37:10.253Z,20.75
2022-08-12T20:42:11.761Z,20.54
2022-08-12T20:47:19.729Z,20.48
2022-08-12T20:52:22.518Z,20.39
2022-08-12T20:57:38.486Z,20.13
2022-08-12T21:02:47.275Z,20.01
2022-08-12T21:07:52.653Z,19.81
2022-08-12T21:12:54.244Z,19.69
2022-08-12T21:18:12.003Z,19.58
2022-08-12T21:23:25.456Z,19.41
2022-08-12T21:28:33.459Z,19.35
2022-08-12T21:34:06.190Z,19.26
2022-08-12T21:39:18.015Z,19.24
2022-08-12T21:44:24.592Z,19.15
2022-08-12T21:49:53.803Z,18.95
2022-08-12T21:54:59.591Z,18.86
2022-08-12T22:00:00.948Z,18.75
2022-08-12T22:05:22.228Z,18.56
2022-08-12T22:10:28.226Z,18.47
2022-08-12T22:15:30.675Z,18.30
2022-08-12T22:20:32.009Z,18.28
2022-08-12T22:25:33.346Z,18.11
2022-08-12T22:30:59.904Z,18.16
2022-08-12T22:36:02.029Z,18.16
2022-08-12T22:41:06.514Z,18.20
2022-08-12T22:46:22.715Z,18.10
2022-08-12T22:51:57.713Z,17.93
2022-08-12T22:56:55.476Z,17.91
2022-08-12T23:02:01.962Z,17.84
2022-08-12T23:07:05.464Z,17.83
2022-08-12T23:12:08.536Z,17.83
2022-08-12T23:17:41.048Z,17.77
2022-08-12T23:23:05.768Z,17.69
2022-08-12T23:28:29.927Z,17.61
2022-08-12T23:34:01.432Z,17.53
2022-08-12T23:39:01.657Z,17.51
2022-08-12T23:44:06.725Z,17.43
2022-08-12T23:49:27.063Z,17.30
2022-08-12T23:54:33.255Z,17.18
2022-08-12T23:59:47.203Z,17.12
